createdAt,value
2022-10-13T11:53:23.469Z,3.63
2022-10-13T11:56:47.580Z,3.72
2022-10-13T11:59:55.315Z,3.88
2022-10-13T12:03:25.313Z,3.60
2022-10-13T12:06:34.077Z,3.72
2022-10-13T12:09:56.984Z,3.50
2022-10-13T12:12:59.658Z,4.35
2022-10-13T12:16:06.594Z,4.90
2022-10-13T12:19:17.936Z,4.75
2022-10-13T12:22:19.798Z,4.95
2022-10-13T12:25:24.281Z,4.35
2022-10-13T12:28:52.531Z,4.30
2022-10-13T12:31:54.730Z,4.30
2022-10-13T12:34:56.775Z,3.90
2022-10-13T12:38:06.680Z,4.13
2022-10-13T12:41:10.562Z,3.92
2022-10-13T12:44:18.448Z,4.03
2022-10-13T12:47:55.652Z,3.90
2022-10-13T12:51:16.729Z,3.88
2022-10-13T12:54:30.992Z,3.53
2022-10-13T12:57:38.044Z,3.10
2022-10-13T13:00:39.900Z,3.50
2022-10-13T13:03:43.650Z,3.22
2022-10-13T13:06:58.129Z,3.30
2022-10-13T13:10:09.440Z,3.60
2022-10-13T13:13:15.349Z,3.33
2022-10-13T13:16:18.381Z,3.38
2022-10-13T13:19:22.952Z,3.10
2022-10-13T13:22:25.149Z,3.40
2022-10-13T13:25:27.015Z,3.08
2022-10-13T13:28:31.003Z,3.08
2022-10-13T13:31:33.118Z,2.92
2022-10-13T13:34:34.636Z,3.22
2022-10-13T13:37:42.330Z,2.80
2022-10-13T13:40:43.873Z,3.08
2022-10-13T13:43:47.664Z,3.30
2022-10-13T13:46:49.242Z,3.25
2022-10-13T13:49:53.463Z,2.92
2022-10-13T13:52:54.982Z,3.15
2022-10-13T13:55:56.968Z,2.78
2022-10-13T13:58:58.441Z,3.03
2022-10-13T14:01:59.950Z,3.40
2022-10-13T14:05:05.771Z,2.88
2022-10-13T14:08:07.923Z,2.85
2022-10-13T14:11:09.618Z,3.10
2022-10-13T14:14:11.092Z,2.67
2022-10-13T14:17:12.592Z,2.83
2022-10-13T14:20:14.188Z,2.58
2022-10-13T14:23:16.190Z,2.80
2022-10-13T14:26:17.656Z,2.88
2022-10-13T14:29:19.285Z,2.70
2022-10-13T14:32:21.005Z,2.65
2022-10-13T14:35:22.755Z,2.38
2022-10-13T14:38:24.352Z,2.55
2022-10-13T14:41:26.177Z,2.70
2022-10-13T14:44:27.671Z,2.95
2022-10-13T14:47:29.132Z,2.88
2022-10-13T14:50:30.620Z,2.80
2022-10-13T14:53:33.795Z,2.63
2022-10-13T14:56:35.475Z,2.78
2022-10-13T14:59:36.949Z,2.67
2022-10-13T15:02:38.440Z,2.85
2022-10-13T15:05:39.905Z,2.50
2022-10-13T15:08:42.360Z,2.63
2022-10-13T15:11:46.129Z,2.80
2022-10-13T15:14:47.616Z,2.58
2022-10-13T15:17:49.071Z,2.30
2022-10-13T15:20:52.552Z,2.67
2022-10-13T15:23:54.049Z,2.80
2022-10-13T15:26:55.503Z,2.50
2022-10-13T15:30:03.563Z,3.10
2022-10-13T15:33:05.027Z,2.50
2022-10-13T15:36:06.748Z,2.72
2022-10-13T15:39:10.588Z,2.47
2022-10-13T15:42:12.421Z,2.25
2022-10-13T15:45:14.851Z,2.85
2022-10-13T15:48:16.386Z,2.45
2022-10-13T15:51:19.860Z,2.60
